This is the latest recevied weather packets stored in our database for station/object N3EYQ. If no packets are shown the sender has not sent any weather packets the latest 10 day(s).
| Time | Temp. | Humidity | Pressure | Rain* | Wind** | Luminosity | Snow |
|---|---|---|---|---|---|---|---|
| 1777712385 | 8.33° C | 84% | 1011.6 hPa | 0 mm | - | - | - |
| 1777711785 | 8.33° C | 84% | 1011.6 hPa | 0 mm | - | - | - |
| 1777711185 | 8.33° C | 84% | 1011.6 hPa | 0 mm | - | - | - |
| 1777710585 | 8.33° C | 83% | 1011.6 hPa | 0 mm | - | - | - |
| 1777709986 | 8.33° C | 84% | 1011.3 hPa | 0 mm | - | - | - |
| 1777709384 | 8.33° C | 84% | 1011.6 hPa | 0 mm | - | - | - |
| 1777708785 | 8.33° C | 84% | 1011.6 hPa | 0 mm | - | - | - |
| 1777708184 | 8.33° C | 83% | 1011.6 hPa | 0 mm | - | - | - |
| 1777707584 | 8.33° C | 85% | 1011.6 hPa | 0 mm | - | - | - |
| 1777706984 | 8.33° C | 83% | 1012.3 hPa | 0 mm | - | - | - |
| 1777706384 | 8.33° C | 82% | 1012.3 hPa | 0 mm | - | - | - |
| 1777705785 | 8.33° C | 82% | 1012.3 hPa | 0 mm | - | - | - |
| 1777705184 | 8.89° C | 82% | 1012.7 hPa | 0 mm | - | - | - |
| 1777704583 | 8.89° C | 82% | 1012.7 hPa | 0 mm | - | - | - |
| 1777703983 | 8.33° C | 82% | 1012.7 hPa | 0 mm | - | - | - |
| 1777703384 | 8.89° C | 84% | 1012.3 hPa | 0 mm | - | - | - |
| 1777702783 | 8.89° C | 81% | 1012.7 hPa | 0 mm | - | - | - |
| 1777702183 | 8.89° C | 81% | 1012.3 hPa | 0 mm | - | - | - |
| 1777701583 | 8.89° C | 81% | 1012.3 hPa | 0 mm | - | - | - |
| 1777700982 | 8.89° C | 83% | 1012.3 hPa | 0 mm | - | - | - |
| 1777700384 | 8.89° C | 81% | 1012.7 hPa | 0 mm | - | - | - |
| 1777699783 | 8.89° C | 80% | 1012.3 hPa | 0 mm | - | - | - |
| 1777699182 | 8.89° C | 80% | 1012.7 hPa | 0 mm | - | - | - |
| 1777698583 | 8.89° C | 80% | 1012.3 hPa | 0 mm | - | - | - |
| 1777697982 | 8.89° C | 78% | 1012.7 hPa | 0 mm | - | - | - |
* Rain latest hour (hover to see other rain measurements)
** Current wind speed in m/s (hover to see current wind gust speed)